Nearby METAR Reports

 

GCLP - Las Palmas/Gando, Spain
Distance from station: NE 26km
Updated: 24/07/2021 07:00
Few Clouds
Few Clouds
 Wind from N
Wind: N 44 km/h
Temperature: 22°C
Dew Point: 18°C
Humidity: 78%
Barometer: 1013 hPa
Clouds: Few Clouds
Visibility: 10 km
Cloud details: Few Clouds 610 m
2021/07/24 07:00 GCLP 240700Z 01024KT 9999 FEW020 22/18 Q1013 NOSIG
GCTS - Tenerife Sur/Rei, Spain
Distance from station: WNW 102km
Updated: 24/07/2021 07:00
Clear
Clear
 Wind from SW
Wind: SW 7 km/h
Temperature: 22°C
Dew Point: 19°C
Humidity: 83%
Barometer: 1014 hPa
Summary: Clear
Visibility: greater than 10 km
2021/07/24 07:00 GCTS 240700Z 23004KT CAVOK 22/19 Q1014 NOSIG
 
GCXO - Tenerife/Los Rod, Spain
Distance from station: NW 110km
Updated: 24/07/2021 07:00
Patches of fog, Overcast
Patches of fog, Overcast
 Wind from W
Wind: W 24 km/h
Temperature: 17°C
Dew Point: 17°C
Humidity: 100%
Barometer: 1017 hPa
Summary: Patches of Fog
Clouds: Overcast
Visibility: 7 km
Cloud details: Overcast 61 m
2021/07/24 07:00 GCXO 240700Z 28013KT 7000 2200NW BCFG VV002 17/17 Q1017 NOSIG
GCGM - La Gomera Arpt, Spain
Distance from station: W 164km
Updated: 24/07/2021 07:00
Clear
Clear
 Wind from N
Wind: N 4 km/h
Temperature: 21°C
Dew Point: 18°C
Humidity: 83%
Barometer: 1015 hPa
Summary: Clear
Visibility: greater than 10 km
2021/07/24 07:00 GCGM 240700Z 35002KT CAVOK 21/18 Q1015 RMK R09/01002KT ARP/02004KT
 
GCFV - Fuerteventura Ar, Spain
Distance from station: ENE 183km
Updated: 24/07/2021 07:00
Clear
Clear
 Wind from NNW
Wind: NNW 22 km/h
Temperature: 23°C
Dew Point: 18°C
Humidity: 74%
Barometer: 1012 hPa
Summary: Clear
Visibility: greater than 10 km
2021/07/24 07:00 GCFV 240700Z 34012KT CAVOK 23/18 Q1012
GCHI - Hierro Airport, Spain
Distance from station: W 226km
Updated: 24/07/2021 07:00
Partly cloudy
Partly cloudy
 Wind from N
Wind: N 31 km/h
Temperature: 22°C
Dew Point: 18°C
Humidity: 78%
Barometer: 1015 hPa
Clouds: Partly cloudy
Visibility: 10 km
Cloud details: Partly cloudy 549 m
Partly cloudy 732 m
2021/07/24 07:00 GCHI 240700Z 36017KT 9999 SCT018 SCT024 22/18 Q1015
 
GCLA - La Palma Airport, Spain
Distance from station: WNW 233km
Updated: 24/07/2021 07:00
Few Clouds
Few Clouds
 Wind from N
Wind: N 30 km/h
Temperature: 22°C
Dew Point: 19°C
Humidity: 83%
Barometer: 1016 hPa
Clouds: Few Clouds
Visibility: 10 km
Cloud details: Few Clouds 701 m
2021/07/24 07:00 GCLA 240700Z 01016KT 9999 FEW023 22/19 Q1016
GCRR - Arrecife/Lanzaro, Spain
Distance from station: NE 234km
Updated: 24/07/2021 07:00
Few Clouds
Few Clouds
 Wind from N
Wind: N 33 km/h
Temperature: 22°C
Dew Point: 18°C
Humidity: 78%
Barometer: 1012 hPa
Clouds: Few Clouds
Visibility: 10 km
Cloud details: Few Clouds 457 m
2021/07/24 07:00 GCRR 240700Z 36018KT 330V030 9999 FEW015 22/18 Q1012
 
LPMA - Funchal/Madeira, Portugal
Distance from station: NNW 556km
Updated: 24/07/2021 07:00
Few Clouds
Few Clouds
 Wind from N
Wind: N 20 km/h
Temperature: 21°C
Dew Point: 15°C
Humidity: 69%
Barometer: 1018 hPa
Clouds: Few Clouds
Visibility: 10 km
Cloud details: Few Clouds 457 m
2021/07/24 07:00 LPMA 240700Z 01011KT 320V050 9999 FEW015 21/15 Q1018
LPPS - Porto Santo Isla, Portugal
Distance from station: N 594km
Updated: 24/07/2021 07:00
Few Clouds
Few Clouds
 Wind from NNE
Wind: NNE 17 km/h
Temperature: 20°C
Dew Point: 16°C
Humidity: 78%
Barometer: 1019 hPa
Clouds: Few Clouds
Visibility: 10 km
Cloud details: Few Clouds 457 m
2021/07/24 07:00 LPPS 240700Z 02009KT 9999 FEW015 20/16 Q1019